Time;durP1;ratioP1;P1;durP2;ratioP2;P2;SDS_P1;SDS_P2;PMS_P1;PMS_P2;Temp;Humidity;BMP_temperature;BMP_pressure;BME280_temperature;BME280_humidity;BME280_pressure;Samples;Min_cycle;Max_cycle;Signal;HPM_P1;HPM_P2
2021/03/21 00:01:56;;;;;;;;;;;7.70;36.60;;;;;;5015012;28;19932;-70
2021/03/21 00:04:22;;;;;;;;;;;7.70;37.10;;;;;;5014407;28;20306;-70
2021/03/21 00:06:49;;;;;;;;;;;7.70;37.10;;;;;;5013799;28;19929;-71
2021/03/21 00:09:16;;;;;;;;;;;7.70;37.10;;;;;;5024685;28;19925;-70
2021/03/21 00:11:42;;;;;;;;;;;7.70;37.00;;;;;;5014143;28;19968;-69
2021/03/21 00:14:08;;;;;;;;;;;7.70;36.80;;;;;;5014499;28;19929;-70
2021/03/21 00:16:36;;;;;;;;;;;7.70;36.30;;;;;;5013646;28;19956;-70
2021/03/21 00:19:02;;;;;;;;;;;7.70;36.40;;;;;;5014559;28;19932;-71
2021/03/21 00:21:29;;;;;;;;;;;7.70;36.90;;;;;;5012547;28;19952;-70
2021/03/21 00:23:56;;;;;;;;;;;7.70;37.10;;;;;;5014148;28;19940;-70
2021/03/21 00:26:22;;;;;;;;;;;7.70;37.00;;;;;;5013532;28;19925;-70
2021/03/21 00:28:49;;;;;;;;;;;7.70;37.00;;;;;;5014075;28;19929;-70
2021/03/21 00:31:16;;;;;;;;;;;7.70;37.20;;;;;;5014153;28;19926;-70
2021/03/21 00:33:42;;;;;;;;;;;7.70;36.80;;;;;;5014163;28;19929;-70
2021/03/21 00:36:09;;;;;;;;;;;7.60;36.10;;;;;;5013728;28;19972;-70
2021/03/21 00:38:37;;;;;;;;;;;7.60;36.00;;;;;;5017775;28;19929;-70
2021/03/21 00:41:05;;;;;;;;;;;7.60;36.20;;;;;;5022083;28;19925;-70
2021/03/21 00:43:31;;;;;;;;;;;7.60;36.00;;;;;;5013910;28;19952;-70
2021/03/21 00:45:58;;;;;;;;;;;7.60;35.80;;;;;;5013567;28;19980;-70
2021/03/21 00:48:26;;;;;;;;;;;7.60;35.90;;;;;;5010919;28;20449;-70
2021/03/21 00:50:53;;;;;;;;;;;7.60;36.00;;;;;;5013952;28;19983;-70
2021/03/21 00:53:19;;;;;;;;;;;7.60;36.10;;;;;;5013557;28;19980;-70
2021/03/21 00:55:46;;;;;;;;;;;7.60;36.00;;;;;;5013724;28;19925;-70
2021/03/21 00:58:13;;;;;;;;;;;7.60;35.80;;;;;;5013271;28;19925;-70
2021/03/21 01:00:41;;;;;;;;;;;7.60;35.90;;;;;;5013747;28;19972;-70
2021/03/21 01:03:07;;;;;;;;;;;7.60;35.90;;;;;;5013502;28;20370;-70
2021/03/21 01:05:36;;;;;;;;;;;7.60;35.90;;;;;;5013672;28;19933;-70
2021/03/21 01:08:03;;;;;;;;;;;7.60;35.90;;;;;;5008348;28;19992;-70
2021/03/21 01:10:30;;;;;;;;;;;7.60;36.00;;;;;;4993081;28;20299;-70
2021/03/21 01:12:58;;;;;;;;;;;7.50;35.70;;;;;;4993658;28;19930;-70
2021/03/21 01:15:26;;;;;;;;;;;7.50;35.70;;;;;;4991984;28;19926;-70
2021/03/21 01:17:53;;;;;;;;;;;7.50;35.60;;;;;;4993108;28;20017;-70
2021/03/21 01:20:21;;;;;;;;;;;7.40;35.50;;;;;;4991583;28;19933;-70
2021/03/21 01:22:48;;;;;;;;;;;7.40;35.70;;;;;;4993643;28;20405;-70
2021/03/21 01:25:14;;;;;;;;;;;7.50;36.00;;;;;;4993505;28;20375;-70
2021/03/21 01:27:40;;;;;;;;;;;7.40;35.90;;;;;;4993683;28;20426;-70
2021/03/21 01:30:07;;;;;;;;;;;7.40;35.80;;;;;;4992602;28;19930;-70
2021/03/21 01:32:35;;;;;;;;;;;7.40;35.80;;;;;;4993599;28;19989;-70
2021/03/21 01:35:01;;;;;;;;;;;7.40;35.80;;;;;;4993162;28;20338;-70
2021/03/21 01:37:27;;;;;;;;;;;7.40;35.90;;;;;;4993806;28;19930;-70
2021/03/21 01:39:53;;;;;;;;;;;7.50;36.10;;;;;;4992390;28;19929;-70
2021/03/21 01:42:20;;;;;;;;;;;7.50;35.90;;;;;;4992381;28;20422;-70
2021/03/21 01:44:46;;;;;;;;;;;7.50;35.90;;;;;;4993293;28;20299;-70
2021/03/21 01:47:22;;;;;;;;;;;7.50;35.90;;;;;;4993459;28;19926;-70
2021/03/21 01:49:49;;;;;;;;;;;7.50;36.00;;;;;;4993240;28;19926;-69
2021/03/21 01:52:31;;;;;;;;;;;7.50;36.20;;;;;;4993221;28;19953;-70
2021/03/21 01:54:58;;;;;;;;;;;7.50;36.50;;;;;;4993234;28;19926;-70
2021/03/21 01:57:25;;;;;;;;;;;7.40;36.60;;;;;;4993360;28;19930;-70
2021/03/21 01:59:51;;;;;;;;;;;7.50;36.60;;;;;;4993862;28;19929;-69
2021/03/21 02:02:18;;;;;;;;;;;7.40;36.60;;;;;;4996930;28;20401;-70
2021/03/21 02:04:44;;;;;;;;;;;7.50;36.70;;;;;;5008033;28;19969;-69
2021/03/21 02:07:17;;;;;;;;;;;7.50;36.80;;;;;;4998085;28;20382;-70
2021/03/21 02:09:49;;;;;;;;;;;7.40;36.70;;;;;;5018297;28;19933;-70
2021/03/21 02:12:21;;;;;;;;;;;7.40;36.70;;;;;;5016327;28;19925;-69
2021/03/21 02:14:51;;;;;;;;;;;7.50;36.90;;;;;;5016995;28;20361;-69
2021/03/21 02:17:18;;;;;;;;;;;7.50;36.80;;;;;;5016508;28;19926;-69
2021/03/21 02:19:56;;;;;;;;;;;7.50;37.00;;;;;;5016590;28;19952;-69
2021/03/21 02:22:27;;;;;;;;;;;7.50;37.00;;;;;;5016161;28;19929;-69
2021/03/21 02:25:07;;;;;;;;;;;7.40;37.00;;;;;;5016606;28;20255;-68
2021/03/21 02:27:52;;;;;;;;;;;7.40;37.10;;;;;;5016206;28;19925;-69
2021/03/21 02:30:24;;;;;;;;;;;7.40;37.00;;;;;;5016235;28;19977;-69
2021/03/21 02:32:54;;;;;;;;;;;7.50;36.90;;;;;;5016033;28;19933;-69
2021/03/21 02:35:23;;;;;;;;;;;7.50;37.00;;;;;;5014373;28;19925;-70
2021/03/21 02:37:51;;;;;;;;;;;7.40;37.00;;;;;;5016323;28;19935;-70
2021/03/21 02:40:22;;;;;;;;;;;7.40;37.00;;;;;;5026244;28;20382;-69
2021/03/21 02:42:51;;;;;;;;;;;7.50;37.10;;;;;;5016096;28;19932;-69
2021/03/21 02:45:20;;;;;;;;;;;7.40;36.90;;;;;;5015813;28;19980;-69
2021/03/21 02:47:48;;;;;;;;;;;7.40;37.00;;;;;;5001507;28;19933;-69
2021/03/21 02:50:16;;;;;;;;;;;7.40;37.20;;;;;;5015892;28;20374;-69
2021/03/21 02:52:44;;;;;;;;;;;7.50;37.20;;;;;;5016042;28;20294;-69
2021/03/21 02:55:14;;;;;;;;;;;7.40;37.10;;;;;;5015686;28;19933;-69
2021/03/21 02:57:43;;;;;;;;;;;7.50;37.10;;;;;;5015760;28;20390;-70
2021/03/21 03:00:12;;;;;;;;;;;7.40;37.00;;;;;;5014350;28;19980;-69
2021/03/21 03:02:40;;;;;;;;;;;7.40;36.90;;;;;;5015692;28;19926;-69
2021/03/21 03:05:10;;;;;;;;;;;7.40;36.90;;;;;;5015735;28;19929;-68
2021/03/21 03:07:38;;;;;;;;;;;7.40;37.10;;;;;;5015672;28;19932;-69
2021/03/21 03:10:08;;;;;;;;;;;7.50;37.10;;;;;;5021994;28;19987;-69
2021/03/21 03:12:37;;;;;;;;;;;7.50;37.00;;;;;;5015201;28;20009;-69
2021/03/21 03:15:05;;;;;;;;;;;7.50;37.00;;;;;;5015496;28;19963;-69
2021/03/21 03:17:37;;;;;;;;;;;7.40;36.90;;;;;;5015736;28;19933;-69
2021/03/21 03:20:06;;;;;;;;;;;7.40;36.90;;;;;;5015378;28;19940;-69
2021/03/21 03:22:37;;;;;;;;;;;7.40;36.70;;;;;;5015386;28;20370;-69
2021/03/21 03:25:13;;;;;;;;;;;7.40;36.60;;;;;;5015333;28;19980;-69
2021/03/21 03:27:42;;;;;;;;;;;7.40;36.80;;;;;;5013348;28;19971;-68
2021/03/21 03:30:10;;;;;;;;;;;7.30;36.90;;;;;;5015534;28;19980;-69
2021/03/21 03:32:37;;;;;;;;;;;7.40;37.20;;;;;;5015161;28;19941;-69
2021/03/21 03:35:04;;;;;;;;;;;7.40;37.00;;;;;;5015373;28;20382;-69
2021/03/21 03:37:30;;;;;;;;;;;7.40;37.10;;;;;;5014861;28;19999;-70
2021/03/21 03:39:58;;;;;;;;;;;7.40;37.10;;;;;;5027759;28;19932;-69
2021/03/21 03:42:30;;;;;;;;;;;7.40;37.40;;;;;;5016974;28;19932;-69
2021/03/21 03:45:02;;;;;;;;;;;7.40;38.30;;;;;;5015672;28;19926;-69
2021/03/21 03:47:31;;;;;;;;;;;7.30;37.80;;;;;;5014582;28;19930;-69
2021/03/21 03:49:59;;;;;;;;;;;7.30;37.90;;;;;;5014778;28;19951;-69
2021/03/21 03:52:46;;;;;;;;;;;7.30;37.90;;;;;;5014499;28;20386;-70
2021/03/21 03:55:17;;;;;;;;;;;7.30;37.90;;;;;;5006462;28;20271;-70
2021/03/21 03:57:46;;;;;;;;;;;7.30;38.00;;;;;;5014458;28;19930;-70
2021/03/21 04:00:16;;;;;;;;;;;7.40;37.90;;;;;;5014259;28;19925;-70
2021/03/21 04:02:44;;;;;;;;;;;7.30;37.70;;;;;;5009587;28;19933;-70
2021/03/21 04:05:13;;;;;;;;;;;7.40;38.30;;;;;;5014571;28;19925;-69
2021/03/21 04:07:44;;;;;;;;;;;7.30;37.70;;;;;;5014309;28;19926;-70
2021/03/21 04:10:12;;;;;;;;;;;7.30;37.80;;;;;;5016916;28;19926;-70
2021/03/21 04:12:48;;;;;;;;;;;7.30;37.80;;;;;;5014478;28;20367;-70
2021/03/21 04:15:16;;;;;;;;;;;7.30;37.90;;;;;;5014381;28;19929;-69
2021/03/21 04:17:44;;;;;;;;;;;7.30;37.90;;;;;;5014258;28;19926;-70
2021/03/21 04:20:13;;;;;;;;;;;7.40;38.10;;;;;;5012807;28;20298;-69
2021/03/21 04:22:42;;;;;;;;;;;7.40;38.10;;;;;;5013682;28;19926;-69
2021/03/21 04:25:12;;;;;;;;;;;7.40;38.20;;;;;;5013649;28;19926;-70
2021/03/21 04:27:43;;;;;;;;;;;7.40;38.40;;;;;;5014113;28;19932;-69
2021/03/21 04:30:12;;;;;;;;;;;7.40;38.40;;;;;;5013998;28;19936;-70
2021/03/21 04:32:40;;;;;;;;;;;7.40;38.50;;;;;;5013488;28;19933;-70
2021/03/21 04:35:09;;;;;;;;;;;7.40;38.50;;;;;;5014197;28;19925;-70
2021/03/21 04:37:36;;;;;;;;;;;7.40;38.70;;;;;;5013820;28;19930;-70
2021/03/21 04:40:03;;;;;;;;;;;7.50;38.90;;;;;;5020718;28;19926;-70
2021/03/21 04:42:36;;;;;;;;;;;7.50;39.00;;;;;;5012882;28;19929;-70
2021/03/21 04:45:06;;;;;;;;;;;7.50;39.00;;;;;;5014039;28;20374;-70
2021/03/21 04:47:34;;;;;;;;;;;7.50;39.00;;;;;;5011480;28;19925;-70
2021/03/21 04:50:00;;;;;;;;;;;7.50;39.10;;;;;;5013986;28;19936;-70
2021/03/21 04:52:44;;;;;;;;;;;7.50;39.20;;;;;;5013144;28;20370;-72
2021/03/21 04:55:13;;;;;;;;;;;7.40;39.20;;;;;;5007422;28;20011;-69
2021/03/21 04:57:41;;;;;;;;;;;7.50;39.30;;;;;;5013524;28;19925;-69
2021/03/21 05:00:11;;;;;;;;;;;7.50;39.50;;;;;;5013931;28;19925;-71
2021/03/21 05:02:38;;;;;;;;;;;7.50;39.40;;;;;;5013033;28;20302;-69
2021/03/21 05:05:06;;;;;;;;;;;7.50;39.40;;;;;;5013586;28;20359;-69
2021/03/21 05:07:34;;;;;;;;;;;7.50;39.60;;;;;;5013266;28;20361;-69
2021/03/21 05:10:06;;;;;;;;;;;7.50;39.60;;;;;;5014179;28;19925;-70
2021/03/21 05:12:36;;;;;;;;;;;7.50;39.50;;;;;;5013373;28;19952;-71
2021/03/21 05:15:10;;;;;;;;;;;7.50;39.50;;;;;;5009679;28;19925;-69
2021/03/21 05:17:40;;;;;;;;;;;7.50;39.60;;;;;;5013144;28;20302;-69
2021/03/21 05:20:12;;;;;;;;;;;7.50;39.70;;;;;;5013381;28;19926;-69
2021/03/21 05:22:42;;;;;;;;;;;7.50;39.60;;;;;;5012792;28;20341;-70
2021/03/21 05:25:14;;;;;;;;;;;7.50;40.20;;;;;;5028146;28;19941;-71
2021/03/21 05:27:42;;;;;;;;;;;7.50;39.70;;;;;;5012884;28;19929;-70
2021/03/21 05:30:13;;;;;;;;;;;7.40;39.70;;;;;;5009286;28;19948;-71
2021/03/21 05:32:40;;;;;;;;;;;7.40;39.70;;;;;;5013074;28;19926;-70
2021/03/21 05:35:07;;;;;;;;;;;7.40;39.80;;;;;;5010682;28;19925;-69
2021/03/21 05:37:44;;;;;;;;;;;7.50;39.90;;;;;;5013251;28;20310;-70
2021/03/21 05:40:27;;;;;;;;;;;7.50;39.90;;;;;;5022409;28;19952;-69
2021/03/21 05:43:20;;;;;;;;;;;7.40;39.90;;;;;;5012785;28;19925;-69
2021/03/21 05:46:10;;;;;;;;;;;7.40;39.90;;;;;;4996712;28;19933;-69
2021/03/21 05:48:51;;;;;;;;;;;7.50;40.00;;;;;;5011996;28;19929;-69
2021/03/21 05:51:22;;;;;;;;;;;7.50;39.90;;;;;;5011975;28;19926;-69
2021/03/21 05:54:07;;;;;;;;;;;7.40;39.90;;;;;;5010303;28;19929;-69
2021/03/21 05:57:00;;;;;;;;;;;7.40;40.10;;;;;;5012141;28;19925;-69
2021/03/21 05:59:45;;;;;;;;;;;7.40;40.40;;;;;;4977967;28;19925;-69
2021/03/21 06:02:15;;;;;;;;;;;7.40;40.60;;;;;;5012465;28;19925;-69
2021/03/21 06:05:02;;;;;;;;;;;7.40;40.50;;;;;;5012673;28;19977;-69
2021/03/21 06:07:38;;;;;;;;;;;7.40;40.60;;;;;;5009839;28;19929;-69
2021/03/21 06:10:11;;;;;;;;;;;7.40;40.70;;;;;;5018334;28;19929;-69
2021/03/21 06:12:45;;;;;;;;;;;7.40;40.90;;;;;;5012748;28;19926;-69
2021/03/21 06:15:38;;;;;;;;;;;7.50;41.00;;;;;;5002163;28;19929;-69
2021/03/21 06:18:22;;;;;;;;;;;7.50;41.10;;;;;;5012483;28;19929;-69
2021/03/21 06:21:14;;;;;;;;;;;7.50;41.10;;;;;;5012365;28;19936;-69
2021/03/21 06:23:56;;;;;;;;;;;7.60;41.40;;;;;;5012831;28;19936;-69
2021/03/21 06:26:28;;;;;;;;;;;7.70;41.50;;;;;;5011986;28;19932;-69
2021/03/21 06:29:19;;;;;;;;;;;7.70;42.00;;;;;;5012866;28;19926;-69
2021/03/21 06:31:50;;;;;;;;;;;7.70;41.50;;;;;;4983047;28;20441;-69
2021/03/21 06:34:21;;;;;;;;;;;7.70;41.40;;;;;;4992263;28;19930;-68
2021/03/21 06:36:49;;;;;;;;;;;7.70;41.30;;;;;;5011327;28;19929;-69
2021/03/21 06:39:23;;;;;;;;;;;7.80;41.60;;;;;;5017098;28;19925;-69
2021/03/21 06:42:12;;;;;;;;;;;7.80;41.50;;;;;;5011475;28;19925;-69
2021/03/21 06:44:47;;;;;;;;;;;7.80;41.40;;;;;;5025616;28;19925;-69
2021/03/21 06:47:19;;;;;;;;;;;7.70;41.40;;;;;;5014173;28;19925;-69
2021/03/21 06:50:04;;;;;;;;;;;7.80;41.50;;;;;;5015783;28;19996;-69
2021/03/21 06:52:35;;;;;;;;;;;7.70;41.40;;;;;;5014972;28;19940;-69
2021/03/21 06:55:04;;;;;;;;;;;7.70;41.40;;;;;;5014587;28;19925;-69
2021/03/21 06:58:01;;;;;;;;;;;7.70;41.40;;;;;;5015230;28;19936;-70
2021/03/21 07:00:44;;;;;;;;;;;7.80;41.60;;;;;;5013227;28;19999;-69
2021/03/21 07:03:28;;;;;;;;;;;7.90;41.60;;;;;;5015837;28;19937;-69
2021/03/21 07:06:12;;;;;;;;;;;7.90;41.50;;;;;;5003681;28;19934;-69
2021/03/21 07:09:02;;;;;;;;;;;7.90;41.50;;;;;;5014436;28;20159;-69
2021/03/21 07:11:59;;;;;;;;;;;7.90;41.40;;;;;;5021183;28;20378;-69
2021/03/21 07:14:49;;;;;;;;;;;7.90;41.40;;;;;;5023586;28;19929;-69
2021/03/21 07:17:42;;;;;;;;;;;7.90;41.30;;;;;;4989041;28;19941;-69
2021/03/21 07:20:32;;;;;;;;;;;8.00;41.40;;;;;;5015487;28;19979;-70
2021/03/21 07:23:21;;;;;;;;;;;8.00;41.40;;;;;;5015255;28;19925;-69
2021/03/21 07:26:05;;;;;;;;;;;7.90;41.20;;;;;;4989673;28;20409;-69
2021/03/21 07:28:52;;;;;;;;;;;7.90;41.40;;;;;;5013260;28;19929;-70
2021/03/21 07:31:25;;;;;;;;;;;7.90;41.50;;;;;;5015084;28;19925;-69
2021/03/21 07:33:58;;;;;;;;;;;8.00;41.90;;;;;;5018698;28;19934;-69
2021/03/21 07:36:30;;;;;;;;;;;8.00;42.20;;;;;;5010447;28;19979;-69
2021/03/21 07:39:14;;;;;;;;;;;8.00;42.40;;;;;;5015439;28;19926;-69
2021/03/21 07:41:48;;;;;;;;;;;8.10;42.40;;;;;;5016370;28;20397;-69
2021/03/21 07:44:29;;;;;;;;;;;8.10;41.90;;;;;;5014228;28;19925;-69
2021/03/21 07:47:05;;;;;;;;;;;8.10;41.40;;;;;;5010445;28;19933;-69
2021/03/21 07:49:54;;;;;;;;;;;8.10;41.20;;;;;;5014332;28;19948;-69
2021/03/21 07:52:29;;;;;;;;;;;8.10;41.10;;;;;;5014436;28;20391;-69
2021/03/21 07:54:56;;;;;;;;;;;8.10;41.30;;;;;;5012726;28;19929;-69
2021/03/21 07:57:25;;;;;;;;;;;8.20;41.00;;;;;;5014234;28;19934;-69
2021/03/21 07:59:52;;;;;;;;;;;8.20;41.20;;;;;;5013734;28;20444;-69
2021/03/21 08:02:21;;;;;;;;;;;8.20;41.00;;;;;;5013689;28;19926;-69
2021/03/21 08:04:48;;;;;;;;;;;8.20;41.30;;;;;;5014014;28;19925;-68
2021/03/21 08:07:15;;;;;;;;;;;8.20;41.50;;;;;;5013624;28;19933;-69
2021/03/21 08:09:42;;;;;;;;;;;8.30;41.50;;;;;;5016767;28;19925;-69
2021/03/21 08:12:23;;;;;;;;;;;8.30;41.30;;;;;;5014015;28;20290;-70
2021/03/21 08:14:51;;;;;;;;;;;8.30;41.40;;;;;;5014207;28;20378;-69
2021/03/21 08:17:19;;;;;;;;;;;8.40;41.60;;;;;;5013613;28;19932;-69
2021/03/21 08:19:47;;;;;;;;;;;8.40;41.50;;;;;;5014103;28;20302;-69
2021/03/21 08:22:16;;;;;;;;;;;8.40;41.30;;;;;;5011604;28;19925;-69
2021/03/21 08:24:44;;;;;;;;;;;8.50;41.10;;;;;;5013963;28;19932;-69
2021/03/21 08:27:19;;;;;;;;;;;8.50;41.20;;;;;;5025882;28;19929;-70
2021/03/21 08:29:56;;;;;;;;;;;8.60;41.10;;;;;;5013546;28;20333;-68
2021/03/21 08:32:23;;;;;;;;;;;8.70;41.20;;;;;;5002405;28;20292;-68
2021/03/21 08:34:50;;;;;;;;;;;8.70;40.80;;;;;;5024675;28;19933;-69
2021/03/21 08:37:22;;;;;;;;;;;8.70;40.60;;;;;;5026069;28;19961;-69
2021/03/21 08:39:50;;;;;;;;;;;8.70;40.70;;;;;;5018691;28;19926;-68
2021/03/21 08:42:31;;;;;;;;;;;8.80;40.80;;;;;;5013647;28;19925;-69
2021/03/21 08:45:02;;;;;;;;;;;8.80;40.50;;;;;;5013602;28;19926;-68
2021/03/21 08:47:29;;;;;;;;;;;8.70;40.40;;;;;;5011521;28;19953;-69
2021/03/21 08:49:57;;;;;;;;;;;8.70;40.70;;;;;;5013239;28;20377;-69
2021/03/21 08:52:28;;;;;;;;;;;8.70;40.60;;;;;;5013104;28;19995;-68
2021/03/21 08:54:54;;;;;;;;;;;8.70;40.70;;;;;;5013332;28;20398;-68
2021/03/21 08:57:28;;;;;;;;;;;8.80;40.50;;;;;;5013753;28;20286;-68
2021/03/21 09:00:12;;;;;;;;;;;8.80;40.70;;;;;;5013056;28;20374;-68
2021/03/21 09:02:39;;;;;;;;;;;8.80;40.60;;;;;;5012531;28;19996;-68
2021/03/21 09:05:08;;;;;;;;;;;8.80;40.80;;;;;;5013477;28;19979;-68
2021/03/21 09:07:35;;;;;;;;;;;8.80;40.70;;;;;;5013268;28;19937;-68
2021/03/21 09:10:06;;;;;;;;;;;8.80;40.80;;;;;;5015438;28;19968;-68
2021/03/21 09:12:34;;;;;;;;;;;8.80;40.50;;;;;;5012702;28;19930;-68
2021/03/21 09:15:22;;;;;;;;;;;8.80;40.30;;;;;;5021130;28;19925;-68
2021/03/21 09:18:01;;;;;;;;;;;8.80;40.20;;;;;;4994036;28;20353;-68
2021/03/21 09:20:28;;;;;;;;;;;8.80;40.40;;;;;;4995530;28;19980;-68
2021/03/21 09:22:55;;;;;;;;;;;8.80;41.30;;;;;;5013382;28;19926;-68
2021/03/21 09:25:24;;;;;;;;;;;8.80;40.80;;;;;;5012833;28;19925;-68
2021/03/21 09:27:51;;;;;;;;;;;8.80;40.70;;;;;;5012814;28;19929;-68
2021/03/21 09:30:19;;;;;;;;;;;8.80;40.80;;;;;;5013172;28;20306;-68
2021/03/21 09:32:47;;;;;;;;;;;8.80;40.50;;;;;;5013084;28;19925;-68
2021/03/21 09:35:34;;;;;;;;;;;8.80;40.60;;;;;;5012488;28;19925;-67
2021/03/21 09:38:04;;;;;;;;;;;8.90;40.70;;;;;;4988546;28;19929;-69
2021/03/21 09:40:32;;;;;;;;;;;8.90;40.80;;;;;;5018970;28;20326;-68
2021/03/21 09:42:59;;;;;;;;;;;8.80;40.60;;;;;;4993726;28;20033;-69
2021/03/21 09:45:25;;;;;;;;;;;8.90;40.90;;;;;;4993368;28;19926;-68
2021/03/21 09:47:54;;;;;;;;;;;9.00;40.80;;;;;;5012227;28;19925;-68
2021/03/21 09:50:23;;;;;;;;;;;9.00;40.60;;;;;;5012966;28;19930;-68
2021/03/21 09:52:54;;;;;;;;;;;8.90;40.50;;;;;;4994756;28;19925;-69
2021/03/21 09:55:32;;;;;;;;;;;8.90;40.80;;;;;;4993486;28;19934;-69
2021/03/21 09:58:05;;;;;;;;;;;8.90;41.10;;;;;;4994533;28;19926;-70
2021/03/21 10:00:33;;;;;;;;;;;8.90;41.30;;;;;;4993535;28;19926;-69
2021/03/21 10:03:03;;;;;;;;;;;9.00;41.10;;;;;;5003028;28;19948;-70
2021/03/21 10:05:33;;;;;;;;;;;9.10;41.40;;;;;;5013062;28;19976;-70
2021/03/21 10:08:04;;;;;;;;;;;9.10;41.30;;;;;;5009726;28;20389;-70
2021/03/21 10:10:33;;;;;;;;;;;9.30;41.40;;;;;;5025857;28;19925;-70
2021/03/21 10:12:59;;;;;;;;;;;9.40;41.50;;;;;;5014692;28;19926;-70
2021/03/21 10:15:27;;;;;;;;;;;9.50;41.20;;;;;;5012804;28;20306;-70
2021/03/21 10:17:54;;;;;;;;;;;9.60;41.10;;;;;;5011866;28;19932;-70
2021/03/21 10:20:23;;;;;;;;;;;9.70;41.20;;;;;;5011788;28;19932;-69
2021/03/21 10:22:50;;;;;;;;;;;9.80;41.30;;;;;;5014570;28;19929;-69
2021/03/21 10:25:34;;;;;;;;;;;9.90;41.40;;;;;;5016618;28;19929;-70
2021/03/21 10:28:22;;;;;;;;;;;10.00;40.90;;;;;;5015991;28;19932;-70
2021/03/21 10:31:07;;;;;;;;;;;10.10;42.20;;;;;;5016113;28;20615;-69
2021/03/21 10:33:37;;;;;;;;;;;10.10;42.60;;;;;;5016250;28;19987;-69
2021/03/21 10:36:03;;;;;;;;;;;10.10;42.60;;;;;;5015968;28;19925;-70
2021/03/21 10:38:49;;;;;;;;;;;10.20;42.80;;;;;;5015938;28;19925;-70
2021/03/21 10:41:34;;;;;;;;;;;10.20;43.00;;;;;;5015746;28;20398;-70
2021/03/21 10:44:01;;;;;;;;;;;10.20;43.20;;;;;;5016068;28;20374;-69
2021/03/21 10:46:44;;;;;;;;;;;10.20;43.90;;;;;;5015953;28;20393;-69
2021/03/21 10:49:10;;;;;;;;;;;10.30;44.50;;;;;;5015870;28;19933;-70
2021/03/21 10:51:55;;;;;;;;;;;10.40;45.10;;;;;;5015854;28;19925;-70
2021/03/21 10:54:25;;;;;;;;;;;10.40;46.20;;;;;;5015426;28;19925;-70
2021/03/21 10:57:10;;;;;;;;;;;10.40;46.80;;;;;;5015573;28;19925;-70
2021/03/21 10:59:37;;;;;;;;;;;10.40;47.30;;;;;;5015433;28;19925;-70
2021/03/21 11:02:24;;;;;;;;;;;10.30;47.50;;;;;;5013850;28;19933;-70
2021/03/21 11:04:59;;;;;;;;;;;10.30;47.80;;;;;;5011757;28;19925;-70
2021/03/21 11:07:25;;;;;;;;;;;10.20;48.20;;;;;;5022849;28;19925;-70
2021/03/21 11:09:53;;;;;;;;;;;10.30;48.60;;;;;;5015351;28;19980;-70
2021/03/21 11:12:28;;;;;;;;;;;10.30;48.70;;;;;;5015299;28;19926;-70
2021/03/21 11:14:55;;;;;;;;;;;10.40;48.50;;;;;;5015240;28;19929;-70
2021/03/21 11:17:22;;;;;;;;;;;10.50;48.40;;;;;;5015415;28;20382;-70
2021/03/21 11:19:50;;;;;;;;;;;10.50;48.20;;;;;;5015253;28;20378;-70
2021/03/21 11:22:22;;;;;;;;;;;10.60;48.30;;;;;;5015537;28;19960;-70
2021/03/21 11:24:48;;;;;;;;;;;10.80;48.20;;;;;;5015019;28;19926;-70
2021/03/21 11:27:24;;;;;;;;;;;10.90;47.70;;;;;;5014543;28;19925;-70
2021/03/21 11:29:50;;;;;;;;;;;11.00;47.30;;;;;;5014362;28;19932;-69
2021/03/21 11:32:20;;;;;;;;;;;10.90;46.60;;;;;;5014239;28;20378;-70
2021/03/21 11:34:57;;;;;;;;;;;10.80;46.80;;;;;;5015047;28;19925;-70
2021/03/21 11:37:26;;;;;;;;;;;10.80;46.60;;;;;;5032215;28;19987;-70
2021/03/21 11:39:54;;;;;;;;;;;10.70;46.20;;;;;;5014529;28;19933;-70
2021/03/21 11:42:23;;;;;;;;;;;10.70;46.30;;;;;;5014736;28;19941;-70
2021/03/21 11:44:50;;;;;;;;;;;10.70;45.70;;;;;;5002385;28;19987;-70
2021/03/21 11:47:27;;;;;;;;;;;10.70;45.70;;;;;;5014740;28;19926;-70
2021/03/21 11:49:54;;;;;;;;;;;10.60;44.70;;;;;;5013713;28;19988;-69
2021/03/21 11:52:21;;;;;;;;;;;10.60;44.40;;;;;;5014746;28;19926;-70
2021/03/21 11:54:47;;;;;;;;;;;10.50;44.80;;;;;;5013118;28;19925;-70
2021/03/21 11:57:25;;;;;;;;;;;10.50;45.00;;;;;;5014531;28;20386;-70
2021/03/21 11:59:54;;;;;;;;;;;10.60;45.10;;;;;;5014032;28;19929;-69
2021/03/21 12:02:26;;;;;;;;;;;10.60;45.20;;;;;;5013645;28;19929;-70
2021/03/21 12:04:53;;;;;;;;;;;10.60;44.90;;;;;;5014443;28;20004;-69
2021/03/21 12:07:23;;;;;;;;;;;10.70;45.00;;;;;;5013922;28;19925;-71
2021/03/21 12:09:51;;;;;;;;;;;10.70;45.10;;;;;;5013124;28;20049;-69
2021/03/21 12:12:30;;;;;;;;;;;10.70;45.00;;;;;;5013901;28;19948;-68
2021/03/21 12:14:57;;;;;;;;;;;10.70;45.10;;;;;;5013488;28;19932;-70
2021/03/21 12:17:34;;;;;;;;;;;10.70;45.30;;;;;;5024038;28;19932;-69
2021/03/21 12:20:24;;;;;;;;;;;10.70;45.20;;;;;;5024767;28;20341;-69
2021/03/21 12:22:51;;;;;;;;;;;10.70;45.40;;;;;;4996979;28;19929;-69
2021/03/21 12:25:20;;;;;;;;;;;10.60;45.60;;;;;;5013975;28;19926;-69
2021/03/21 12:27:47;;;;;;;;;;;10.60;45.80;;;;;;5013720;28;19926;-70
2021/03/21 12:30:16;;;;;;;;;;;10.60;46.00;;;;;;5014107;28;19925;-71
2021/03/21 12:32:43;;;;;;;;;;;10.70;46.60;;;;;;5013745;28;19925;-70
2021/03/21 12:35:14;;;;;;;;;;;10.80;46.70;;;;;;4997361;28;19944;-70
2021/03/21 12:37:46;;;;;;;;;;;10.90;46.90;;;;;;4994997;28;19934;-70
2021/03/21 12:40:16;;;;;;;;;;;11.10;47.40;;;;;;5003104;28;19948;-70
2021/03/21 12:42:43;;;;;;;;;;;11.20;47.40;;;;;;5013147;28;19934;-70
2021/03/21 12:45:16;;;;;;;;;;;11.20;47.30;;;;;;5009846;28;20362;-70
2021/03/21 12:47:45;;;;;;;;;;;11.20;47.50;;;;;;5010752;28;20898;-70
2021/03/21 12:50:35;;;;;;;;;;;11.20;47.80;;;;;;5000557;28;19976;-70
2021/03/21 12:53:03;;;;;;;;;;;11.20;48.20;;;;;;4997224;28;19932;-70
2021/03/21 12:55:30;;;;;;;;;;;11.10;48.60;;;;;;5013478;28;19933;-71
2021/03/21 12:57:57;;;;;;;;;;;11.20;49.00;;;;;;5013135;28;19995;-71
2021/03/21 13:00:25;;;;;;;;;;;11.20;49.30;;;;;;5012223;28;19940;-70
2021/03/21 13:02:52;;;;;;;;;;;11.40;49.60;;;;;;5011427;28;20028;-70
2021/03/21 13:05:20;;;;;;;;;;;11.50;49.80;;;;;;5014822;28;19925;-71
2021/03/21 13:07:47;;;;;;;;;;;11.60;49.80;;;;;;5011798;28;20378;-71
2021/03/21 13:10:13;;;;;;;;;;;11.60;49.50;;;;;;5012393;28;19929;-70
2021/03/21 13:12:41;;;;;;;;;;;11.60;49.70;;;;;;5012580;28;19933;-70
2021/03/21 13:15:08;;;;;;;;;;;11.60;49.80;;;;;;4995091;28;19926;-70
2021/03/21 13:17:34;;;;;;;;;;;11.60;50.00;;;;;;4997939;28;19937;-70
2021/03/21 13:20:01;;;;;;;;;;;11.60;50.20;;;;;;5008656;28;20301;-70
2021/03/21 13:22:27;;;;;;;;;;;11.50;50.20;;;;;;4997906;28;19961;-70
2021/03/21 13:24:53;;;;;;;;;;;11.50;50.50;;;;;;5011936;28;19933;-70
2021/03/21 13:27:20;;;;;;;;;;;11.40;50.70;;;;;;5010876;28;19932;-70
2021/03/21 13:29:47;;;;;;;;;;;11.40;50.80;;;;;;5012935;28;19929;-70
2021/03/21 13:32:13;;;;;;;;;;;11.50;51.10;;;;;;5012478;28;19925;-70
2021/03/21 13:34:39;;;;;;;;;;;11.50;51.20;;;;;;5013242;28;20049;-71
2021/03/21 13:37:06;;;;;;;;;;;11.60;51.30;;;;;;5004510;28;19926;-70
2021/03/21 13:39:33;;;;;;;;;;;11.60;51.20;;;;;;5005376;28;20018;-71
2021/03/21 13:41:59;;;;;;;;;;;11.60;51.20;;;;;;5004166;28;20381;-71
2021/03/21 13:44:27;;;;;;;;;;;11.70;51.20;;;;;;5008191;28;19934;-71
2021/03/21 13:46:54;;;;;;;;;;;11.70;50.90;;;;;;5004688;28;19926;-71
2021/03/21 13:49:20;;;;;;;;;;;11.80;50.90;;;;;;5012124;28;19933;-71
2021/03/21 13:51:48;;;;;;;;;;;11.80;50.60;;;;;;5012427;28;19925;-72
2021/03/21 13:54:16;;;;;;;;;;;11.90;50.80;;;;;;5009067;28;19933;-72
2021/03/21 13:56:43;;;;;;;;;;;11.90;50.70;;;;;;5008554;28;19932;-72
2021/03/21 13:59:09;;;;;;;;;;;12.00;50.60;;;;;;5002416;28;19925;-72
2021/03/21 14:01:35;;;;;;;;;;;11.90;50.40;;;;;;4997806;28;19926;-71
2021/03/21 14:04:03;;;;;;;;;;;11.90;50.40;;;;;;5009659;28;19930;-71
2021/03/21 14:06:29;;;;;;;;;;;11.80;50.30;;;;;;5026034;28;19951;-71
2021/03/21 14:08:56;;;;;;;;;;;11.70;50.70;;;;;;5012223;28;19932;-71
2021/03/21 14:11:22;;;;;;;;;;;11.50;50.90;;;;;;5016732;28;19933;-70
2021/03/21 14:13:48;;;;;;;;;;;11.40;51.20;;;;;;5011116;28;20397;-70
2021/03/21 14:16:16;;;;;;;;;;;11.40;51.40;;;;;;4997326;28;19925;-71
2021/03/21 14:18:42;;;;;;;;;;;11.40;51.50;;;;;;5006678;28;19988;-71
2021/03/21 14:21:09;;;;;;;;;;;11.40;51.50;;;;;;5010295;28;20379;-71
2021/03/21 14:23:36;;;;;;;;;;;11.40;51.70;;;;;;4997375;28;20290;-71
2021/03/21 14:26:02;;;;;;;;;;;11.30;51.70;;;;;;5014063;28;19925;-71
2021/03/21 14:28:34;;;;;;;;;;;11.30;51.70;;;;;;5016478;28;19936;-71
2021/03/21 14:31:01;;;;;;;;;;;11.30;51.90;;;;;;5010169;28;19956;-71
2021/03/21 14:33:27;;;;;;;;;;;11.30;51.80;;;;;;4998545;28;20295;-71
2021/03/21 14:35:53;;;;;;;;;;;11.20;51.80;;;;;;5015415;28;20338;-71
2021/03/21 14:38:22;;;;;;;;;;;11.20;51.90;;;;;;5016507;28;19926;-71
2021/03/21 14:40:49;;;;;;;;;;;11.30;51.90;;;;;;5014440;28;19934;-71
2021/03/21 14:43:16;;;;;;;;;;;11.30;51.80;;;;;;5016426;28;19929;-71
2021/03/21 14:45:43;;;;;;;;;;;11.30;51.60;;;;;;5003897;28;19952;-71
2021/03/21 14:48:10;;;;;;;;;;;11.30;51.50;;;;;;4997666;28;20009;-71
2021/03/21 14:50:36;;;;;;;;;;;11.30;51.60;;;;;;5011178;28;19929;-71